KLRF/LRF METAR and TAF weather

Enter ICAO airport designator
Station Type Date Time Source
KLRF METAR 2022/12/09 21:55 UTC NOAA

KLRF 092155Z AUTO 34003KT 10SM CLR 18/11 A3010 RMK AO2 SLP195 T01800113 $


Station Type Date Time Source
KLRF Decoded METAR 2022/12/09 21:55 UTC NOAA

Little Rock Air Force Base, AR, United States (KLRF) 34-55N 092-09W
Dec 09, 2022 - 04:55 PM EST / 2022.12.09 2155 UTC
Wind: from the NNW (340 degrees) at 3 MPH (3 KT):0
Visibility: 10 mile(s):0
Sky conditions: clear
Temperature: 64.4 F (18.0 C)
Dew Point: 52.3 F (11.3 C)
Relative Humidity: 64%
Pressure (altimeter): 30.1 in. Hg (1019 hPa)
ob: KLRF 092155Z AUTO 34003KT 10SM CLR 18/11 A3010 RMK AO2 SLP195 T01800113
cycle: 22

Station Type Date Time Source
KLRF TAF 2022/12/09 20:28 UTC NOAA

TAF
AMD KLRF 092023Z 0920/1021 33005KT 9999 FEW020 SCT220 QNH3008INS
BECMG 1009/1010 10006KT 9999 SCT020 BKN070 QNH3011INS
BECMG 1013/1014 06006KT 9999 VCSH BKN006 OVC030 QNH3011INS
BECMG 1014/1015 06006KT 9000 -SHRA OVC006 QNH3012INS TX19/0921Z TN10/1011Z

Example: see airport list